Terminal Aerodrome Forecast
Issued by NWS

Home | Current Version | Previous Version | Graphics & Text | Print | Product List | Glossary On
Versions: 1 2 3 4 5 6 7 8 9 10 11 12 13 14 15 16 17
339
FTUS43 KMPX 162339
TAFAXN
TAF
KAXN 162339Z 1700/1724 27010KT P6SM OVC015
     FM171500 29010KT P6SM BKN025
     FM171800 29010KT P6SM SCT040=

USA.gov is the U.S. government's official web portal to all federal, state and local government web resources and services.